Time;durP1;ratioP1;P1;durP2;ratioP2;P2;SDS_P1;SDS_P2;PMS_P1;PMS_P2;Temp;Humidity;BMP_temperature;BMP_pressure;BME280_temperature;BME280_humidity;BME280_pressure;Samples;Min_cycle;Max_cycle;Signal;HPM_P1;HPM_P2
2022/01/02 00:01:00;;;;;;;;;;;23.00;33.00;;;;;;5119539;28;20400;-60
2022/01/02 00:03:25;;;;;;;;;;;23.10;32.80;;;;;;5107313;28;19924;-61
2022/01/02 00:05:53;;;;;;;;;;;22.90;33.10;;;;;;5119233;28;19924;-61
2022/01/02 00:08:19;;;;;;;;;;;23.00;32.90;;;;;;5101670;28;19923;-60
2022/01/02 00:10:45;;;;;;;;;;;23.00;33.00;;;;;;5125168;28;19931;-58
2022/01/02 00:13:15;;;;;;;;;;;22.90;33.10;;;;;;5119761;27;19928;-62
2022/01/02 00:15:41;;;;;;;;;;;22.70;33.40;;;;;;5123043;28;19938;-59
2022/01/02 00:18:12;;;;;;;;;;;22.90;33.00;;;;;;5128788;28;20300;-60
2022/01/02 00:20:46;;;;;;;;;;;22.70;33.40;;;;;;5104266;28;20349;-60
2022/01/02 00:23:18;;;;;;;;;;;22.90;33.00;;;;;;5091394;28;20310;-60
2022/01/02 00:25:44;;;;;;;;;;;22.90;33.00;;;;;;5126985;28;20544;-60
2022/01/02 00:28:10;;;;;;;;;;;22.90;33.00;;;;;;5123222;28;19923;-61
2022/01/02 00:30:36;;;;;;;;;;;23.00;32.90;;;;;;5110313;28;19934;-59
2022/01/02 00:33:01;;;;;;;;;;;22.80;33.10;;;;;;5104464;28;19923;-60
2022/01/02 00:35:27;;;;;;;;;;;22.90;32.80;;;;;;5103131;28;19923;-59
2022/01/02 00:37:53;;;;;;;;;;;22.60;33.40;;;;;;5128135;28;19927;-60
2022/01/02 00:40:19;;;;;;;;;;;22.80;33.00;;;;;;5122314;28;19928;-59
2022/01/02 00:42:45;;;;;;;;;;;23.00;32.80;;;;;;5122359;28;19923;-62
2022/01/02 00:45:19;;;;;;;;;;;22.90;32.90;;;;;;5108131;28;20418;-60
2022/01/02 00:47:45;;;;;;;;;;;23.00;32.90;;;;;;5122882;28;19980;-62
2022/01/02 00:50:14;;;;;;;;;;;22.90;32.90;;;;;;5127975;28;20014;-60
2022/01/02 00:52:41;;;;;;;;;;;23.00;32.80;;;;;;5123246;28;19933;-59
2022/01/02 00:55:08;;;;;;;;;;;22.60;33.40;;;;;;5122266;28;19971;-60
2022/01/02 00:57:34;;;;;;;;;;;22.80;33.00;;;;;;5127463;28;19935;-60
2022/01/02 01:00:00;;;;;;;;;;;22.90;32.80;;;;;;5121951;28;19928;-62
2022/01/02 01:02:28;;;;;;;;;;;23.00;32.70;;;;;;5122081;28;19935;-63
2022/01/02 01:04:54;;;;;;;;;;;22.80;33.10;;;;;;5127853;28;20397;-61
2022/01/02 01:07:20;;;;;;;;;;;22.80;33.00;;;;;;5122294;28;20189;-59
2022/01/02 01:09:46;;;;;;;;;;;22.80;32.90;;;;;;5103917;28;19924;-61
2022/01/02 01:12:12;;;;;;;;;;;22.90;32.80;;;;;;5127027;28;19976;-61
2022/01/02 01:14:38;;;;;;;;;;;23.10;32.50;;;;;;5122364;28;19927;-62
2022/01/02 01:17:04;;;;;;;;;;;22.70;33.20;;;;;;5127276;28;19957;-59
2022/01/02 01:19:30;;;;;;;;;;;23.00;32.60;;;;;;5122073;28;19923;-62
2022/01/02 01:21:55;;;;;;;;;;;22.80;32.90;;;;;;5121533;28;19987;-60
2022/01/02 01:24:21;;;;;;;;;;;23.00;32.70;;;;;;5127513;27;19924;-62
2022/01/02 01:26:50;;;;;;;;;;;22.50;33.30;;;;;;5122105;28;19977;-63
2022/01/02 01:29:15;;;;;;;;;;;22.70;33.10;;;;;;5122078;28;20116;-61
2022/01/02 01:31:41;;;;;;;;;;;23.00;32.70;;;;;;5127268;28;19968;-61
2022/01/02 01:34:07;;;;;;;;;;;22.90;32.70;;;;;;5103455;28;19954;-60
2022/01/02 01:36:33;;;;;;;;;;;23.00;32.70;;;;;;5127091;28;20017;-61
2022/01/02 01:38:58;;;;;;;;;;;23.00;32.60;;;;;;5121539;28;19923;-61
2022/01/02 01:41:28;;;;;;;;;;;22.90;32.60;;;;;;5121569;28;19927;-59
2022/01/02 01:44:07;;;;;;;;;;;23.00;32.40;;;;;;5127389;28;20263;-62
2022/01/02 01:46:33;;;;;;;;;;;22.80;32.80;;;;;;5121549;28;19930;-61
2022/01/02 01:48:59;;;;;;;;;;;22.90;32.70;;;;;;5121535;28;19930;-60
2022/01/02 01:51:25;;;;;;;;;;;23.00;32.40;;;;;;5126896;28;19923;-59
2022/01/02 01:53:51;;;;;;;;;;;23.00;32.30;;;;;;5121528;28;20015;-58
2022/01/02 01:56:16;;;;;;;;;;;22.90;32.50;;;;;;5102985;28;19972;-61
2022/01/02 01:58:42;;;;;;;;;;;23.00;32.30;;;;;;5127012;28;19935;-57
2022/01/02 02:01:08;;;;;;;;;;;23.00;32.20;;;;;;5103329;28;19932;-58
2022/01/02 02:03:34;;;;;;;;;;;23.00;32.20;;;;;;5126805;28;19931;-60
2022/01/02 02:06:00;;;;;;;;;;;23.00;32.20;;;;;;5103677;28;19966;-59
2022/01/02 02:08:27;;;;;;;;;;;22.80;32.40;;;;;;5121012;28;19923;-58
2022/01/02 02:10:56;;;;;;;;;;;23.10;32.00;;;;;;5126768;28;20010;-62
2022/01/02 02:13:22;;;;;;;;;;;22.90;32.10;;;;;;5121132;28;19924;-59
2022/01/02 02:15:51;;;;;;;;;;;23.00;32.10;;;;;;5120977;28;19926;-60
2022/01/02 02:18:17;;;;;;;;;;;22.90;32.10;;;;;;5123090;28;19935;-61
2022/01/02 02:20:42;;;;;;;;;;;22.60;32.50;;;;;;5120970;28;20301;-59
2022/01/02 02:23:08;;;;;;;;;;;22.80;32.20;;;;;;5126352;28;21030;-60
2022/01/02 02:25:35;;;;;;;;;;;23.00;32.00;;;;;;5121716;28;19927;-62
2022/01/02 02:28:04;;;;;;;;;;;23.00;31.90;;;;;;5116809;28;20414;-61
2022/01/02 02:30:31;;;;;;;;;;;22.90;32.00;;;;;;5126052;28;19923;-61
2022/01/02 02:32:57;;;;;;;;;;;23.00;32.00;;;;;;5120560;28;19931;-58
2022/01/02 02:35:23;;;;;;;;;;;23.00;31.90;;;;;;5120400;27;19948;-62
2022/01/02 02:37:49;;;;;;;;;;;22.90;31.90;;;;;;5125802;28;20022;-61
2022/01/02 02:40:15;;;;;;;;;;;23.00;31.70;;;;;;5120583;28;20146;-61
2022/01/02 02:42:52;;;;;;;;;;;22.90;31.90;;;;;;5120945;28;19930;-60
2022/01/02 02:50:57;;;;;;;;;;;22.90;31.80;;;;;;5120222;28;19929;-61
2022/01/02 02:53:23;;;;;;;;;;;23.00;31.80;;;;;;5125393;28;19924;-55
2022/01/02 02:55:54;;;;;;;;;;;22.90;31.90;;;;;;5120826;28;20379;-61
2022/01/02 03:00:58;;;;;;;;;;;22.90;31.80;;;;;;5125741;28;19946;-59
2022/01/02 03:03:24;;;;;;;;;;;23.00;31.60;;;;;;5120119;28;19978;-60
2022/01/02 03:05:50;;;;;;;;;;;23.00;31.70;;;;;;5122795;28;20340;-60
2022/01/02 03:08:16;;;;;;;;;;;23.00;31.60;;;;;;5104817;28;19979;-60
2022/01/02 03:10:42;;;;;;;;;;;23.00;31.60;;;;;;5101728;28;19924;-60
2022/01/02 03:13:07;;;;;;;;;;;22.90;31.70;;;;;;5125676;28;20429;-60
2022/01/02 03:15:33;;;;;;;;;;;23.00;31.60;;;;;;5120662;28;19923;-60
2022/01/02 03:17:59;;;;;;;;;;;23.00;31.50;;;;;;5120483;28;19927;-61
2022/01/02 03:20:24;;;;;;;;;;;23.10;31.30;;;;;;5126006;28;19931;-58
2022/01/02 03:22:50;;;;;;;;;;;22.90;31.40;;;;;;5120062;28;20405;-60
2022/01/02 03:25:17;;;;;;;;;;;22.80;31.60;;;;;;5120205;28;19939;-59
2022/01/02 03:27:43;;;;;;;;;;;22.90;31.30;;;;;;5125295;28;19930;-60
2022/01/02 03:30:10;;;;;;;;;;;23.10;31.30;;;;;;5119601;28;20434;-60
2022/01/02 03:32:35;;;;;;;;;;;23.00;31.10;;;;;;5125768;28;19928;-61
2022/01/02 03:35:01;;;;;;;;;;;23.00;31.20;;;;;;5120293;28;20282;-60
2022/01/02 03:37:28;;;;;;;;;;;22.80;31.40;;;;;;5101736;28;19927;-58
2022/01/02 03:39:55;;;;;;;;;;;23.00;31.20;;;;;;5125273;28;19930;-62
2022/01/02 03:42:21;;;;;;;;;;;23.10;31.10;;;;;;5119692;28;19930;-61
2022/01/02 03:44:46;;;;;;;;;;;23.10;31.00;;;;;;5119652;28;20360;-62
2022/01/02 03:47:12;;;;;;;;;;;23.10;31.00;;;;;;5125694;27;20310;-61
2022/01/02 03:49:38;;;;;;;;;;;23.00;31.10;;;;;;5123222;28;19928;-60
2022/01/02 03:52:04;;;;;;;;;;;23.10;30.90;;;;;;5129350;28;19938;-59
2022/01/02 03:54:29;;;;;;;;;;;23.10;30.80;;;;;;5123432;28;19924;-61
2022/01/02 03:56:55;;;;;;;;;;;23.00;30.90;;;;;;5123683;28;19934;-62
2022/01/02 03:59:21;;;;;;;;;;;23.00;30.90;;;;;;5128881;28;19927;-59
2022/01/02 04:01:47;;;;;;;;;;;22.80;31.20;;;;;;5122929;28;19923;-61
2022/01/02 04:04:12;;;;;;;;;;;22.90;30.90;;;;;;5122945;28;19923;-60
2022/01/02 04:06:38;;;;;;;;;;;23.00;30.80;;;;;;5128004;28;19927;-62
2022/01/02 04:09:04;;;;;;;;;;;23.00;30.70;;;;;;5123298;28;19924;-60
2022/01/02 04:11:30;;;;;;;;;;;23.00;30.70;;;;;;5128761;28;19923;-61
2022/01/02 04:13:55;;;;;;;;;;;23.00;30.60;;;;;;5123550;28;19946;-59
2022/01/02 04:16:21;;;;;;;;;;;23.00;30.60;;;;;;5123140;28;19980;-62
2022/01/02 04:18:48;;;;;;;;;;;23.00;30.50;;;;;;5110097;28;19928;-60
2022/01/02 04:21:13;;;;;;;;;;;22.80;30.90;;;;;;5122734;28;20486;-60
2022/01/02 04:23:39;;;;;;;;;;;22.90;30.60;;;;;;5122894;28;20069;-59
2022/01/02 04:26:05;;;;;;;;;;;23.10;30.30;;;;;;5128339;28;19927;-56
2022/01/02 04:28:31;;;;;;;;;;;23.10;30.30;;;;;;5123516;28;19924;-63
2022/01/02 04:30:56;;;;;;;;;;;22.70;30.70;;;;;;5126673;28;19992;-60
2022/01/02 04:33:22;;;;;;;;;;;22.90;30.50;;;;;;5124903;28;19931;-59
2022/01/02 04:35:48;;;;;;;;;;;23.00;30.40;;;;;;5122601;28;19927;-58
2022/01/02 04:38:14;;;;;;;;;;;23.00;30.30;;;;;;5128049;28;20064;-59
2022/01/02 04:40:40;;;;;;;;;;;23.00;30.30;;;;;;5122396;28;19936;-59
2022/01/02 04:43:06;;;;;;;;;;;22.90;30.40;;;;;;5122035;28;19991;-58
2022/01/02 04:45:32;;;;;;;;;;;23.00;30.20;;;;;;5127856;28;20426;-58
2022/01/02 04:47:58;;;;;;;;;;;23.00;30.20;;;;;;5122938;28;20000;-58
2022/01/02 04:50:23;;;;;;;;;;;23.00;30.10;;;;;;5123823;28;19968;-61
2022/01/02 04:52:49;;;;;;;;;;;22.90;30.30;;;;;;5127156;28;19980;-60
2022/01/02 04:55:15;;;;;;;;;;;22.90;30.20;;;;;;5122323;28;20022;-59
2022/01/02 04:57:41;;;;;;;;;;;23.00;30.10;;;;;;5127708;28;19935;-61
2022/01/02 05:00:07;;;;;;;;;;;23.00;30.10;;;;;;5121397;27;19963;-62
2022/01/02 05:02:33;;;;;;;;;;;22.90;30.10;;;;;;5121642;28;19927;-61
2022/01/02 05:04:59;;;;;;;;;;;23.00;30.00;;;;;;5127903;28;20038;-60
2022/01/02 05:07:24;;;;;;;;;;;23.00;30.00;;;;;;5122779;28;19923;-61
2022/01/02 05:09:50;;;;;;;;;;;22.80;30.10;;;;;;5122510;28;20026;-61
2022/01/02 05:12:16;;;;;;;;;;;22.90;30.10;;;;;;5127701;28;19927;-60
2022/01/02 05:14:42;;;;;;;;;;;22.90;30.00;;;;;;5122084;28;19931;-58
2022/01/02 05:17:08;;;;;;;;;;;23.00;29.80;;;;;;5127333;28;19934;-60
2022/01/02 05:19:33;;;;;;;;;;;23.10;29.90;;;;;;5121735;28;19923;-58
2022/01/02 05:21:59;;;;;;;;;;;23.10;29.80;;;;;;5121492;28;20022;-63
2022/01/02 05:24:25;;;;;;;;;;;23.00;29.90;;;;;;5128061;28;19923;-60
2022/01/02 05:26:51;;;;;;;;;;;22.90;30.00;;;;;;5121951;28;20424;-61
2022/01/02 05:29:17;;;;;;;;;;;22.90;29.90;;;;;;5121924;28;20284;-61
2022/01/02 05:31:43;;;;;;;;;;;22.90;29.90;;;;;;5127155;28;19927;-56
2022/01/02 05:34:08;;;;;;;;;;;23.00;29.90;;;;;;5121972;28;20330;-59
2022/01/02 05:36:34;;;;;;;;;;;22.90;30.00;;;;;;5108628;28;19923;-58
2022/01/02 05:39:00;;;;;;;;;;;22.90;29.90;;;;;;5121250;28;19950;-62
2022/01/02 05:41:28;;;;;;;;;;;23.00;29.80;;;;;;5121366;28;19963;-60
2022/01/02 05:43:55;;;;;;;;;;;23.00;29.90;;;;;;5127360;28;19930;-62
2022/01/02 05:46:21;;;;;;;;;;;22.90;29.90;;;;;;5121804;28;20061;-61
2022/01/02 05:48:47;;;;;;;;;;;23.00;29.90;;;;;;5121609;28;20387;-59
2022/01/02 05:51:13;;;;;;;;;;;22.90;30.00;;;;;;5126809;28;19930;-59
2022/01/02 05:53:39;;;;;;;;;;;22.90;30.00;;;;;;5121289;28;19923;-56
2022/01/02 05:56:05;;;;;;;;;;;23.00;29.80;;;;;;5125520;28;20365;-60
2022/01/02 05:58:30;;;;;;;;;;;23.00;29.80;;;;;;5122586;28;19932;-59
2022/01/02 06:00:56;;;;;;;;;;;22.90;29.90;;;;;;5121340;28;19928;-59
2022/01/02 06:03:22;;;;;;;;;;;22.90;29.90;;;;;;5126863;28;19924;-59
2022/01/02 06:05:48;;;;;;;;;;;23.00;29.80;;;;;;5121536;28;19970;-58
2022/01/02 06:08:13;;;;;;;;;;;23.10;29.70;;;;;;5121381;28;19931;-60
2022/01/02 06:10:39;;;;;;;;;;;23.00;29.80;;;;;;5125757;27;20027;-58
2022/01/02 06:13:05;;;;;;;;;;;22.90;29.90;;;;;;5101885;28;20292;-61
2022/01/02 06:15:31;;;;;;;;;;;23.10;29.80;;;;;;5122784;28;19936;-59
2022/01/02 06:17:57;;;;;;;;;;;23.10;29.70;;;;;;5124754;28;19931;-64
2022/01/02 06:20:23;;;;;;;;;;;23.00;29.80;;;;;;5121637;28;19930;-60
2022/01/02 06:22:50;;;;;;;;;;;22.90;30.00;;;;;;5126139;28;19932;-60
2022/01/02 06:25:16;;;;;;;;;;;22.90;29.90;;;;;;5121227;28;19933;-59
2022/01/02 06:27:42;;;;;;;;;;;23.00;29.90;;;;;;5121044;28;19989;-59
2022/01/02 06:30:08;;;;;;;;;;;23.00;29.80;;;;;;5126468;28;19923;-61
2022/01/02 06:32:34;;;;;;;;;;;23.00;29.80;;;;;;5120620;28;20003;-59
2022/01/02 06:34:59;;;;;;;;;;;23.10;29.80;;;;;;5120181;28;19923;-60
2022/01/02 06:37:25;;;;;;;;;;;23.00;29.80;;;;;;5126373;28;19930;-60
2022/01/02 06:39:51;;;;;;;;;;;23.00;29.80;;;;;;5120767;28;19993;-59
2022/01/02 06:42:17;;;;;;;;;;;23.10;29.60;;;;;;5126235;28;20393;-60
2022/01/02 06:44:42;;;;;;;;;;;23.00;29.80;;;;;;5102033;28;19996;-61
2022/01/02 06:47:08;;;;;;;;;;;22.80;30.00;;;;;;5120620;28;19923;-60
2022/01/02 06:49:34;;;;;;;;;;;23.00;29.70;;;;;;5125782;28;19923;-60
2022/01/02 06:52:00;;;;;;;;;;;22.90;29.70;;;;;;5120452;28;19930;-59
2022/01/02 06:54:26;;;;;;;;;;;23.00;29.60;;;;;;5120315;28;19974;-56
2022/01/02 06:56:51;;;;;;;;;;;23.00;29.60;;;;;;5126464;28;20366;-61
2022/01/02 06:59:17;;;;;;;;;;;22.80;29.80;;;;;;5120632;28;20318;-60
2022/01/02 07:01:43;;;;;;;;;;;22.80;29.90;;;;;;5126155;28;19931;-58
2022/01/02 07:04:09;;;;;;;;;;;22.90;29.60;;;;;;5120486;28;19923;-59
2022/01/02 07:06:35;;;;;;;;;;;23.00;29.60;;;;;;5120366;28;19923;-58
2022/01/02 07:09:00;;;;;;;;;;;23.00;29.40;;;;;;5125634;28;19972;-61
2022/01/02 07:11:26;;;;;;;;;;;22.90;29.50;;;;;;5119932;28;19928;-57
2022/01/02 07:13:52;;;;;;;;;;;22.90;29.60;;;;;;5119798;28;19923;-60
2022/01/02 07:16:18;;;;;;;;;;;22.90;29.50;;;;;;5125755;28;20287;-59
2022/01/02 07:18:44;;;;;;;;;;;23.10;29.30;;;;;;5120065;28;19931;-62
2022/01/02 07:21:09;;;;;;;;;;;23.10;29.20;;;;;;5125436;28;19949;-61
2022/01/02 07:23:35;;;;;;;;;;;22.90;29.50;;;;;;5119461;27;19933;-60
2022/01/02 07:26:01;;;;;;;;;;;22.90;29.50;;;;;;5119935;28;20394;-59
2022/01/02 07:28:29;;;;;;;;;;;23.00;29.30;;;;;;5125353;28;20286;-60
2022/01/02 07:30:55;;;;;;;;;;;23.10;29.20;;;;;;5119729;28;19935;-61
2022/01/02 07:33:20;;;;;;;;;;;23.00;29.20;;;;;;5120218;28;20196;-58
2022/01/02 07:35:46;;;;;;;;;;;23.00;29.20;;;;;;5125804;28;20332;-61
2022/01/02 07:38:12;;;;;;;;;;;23.00;29.20;;;;;;5119855;28;19933;-60
2022/01/02 07:40:38;;;;;;;;;;;23.10;29.00;;;;;;5123290;28;19931;-62
2022/01/02 07:43:04;;;;;;;;;;;23.10;29.10;;;;;;5122867;28;19930;-59
2022/01/02 07:45:29;;;;;;;;;;;23.00;29.20;;;;;;5119606;28;19936;-59
2022/01/02 07:47:55;;;;;;;;;;;23.00;29.30;;;;;;5125121;28;19949;-58
2022/01/02 07:50:22;;;;;;;;;;;23.20;29.00;;;;;;5119822;28;20374;-61
2022/01/02 07:52:48;;;;;;;;;;;23.10;29.10;;;;;;5120077;28;20359;-60
2022/01/02 07:55:14;;;;;;;;;;;23.00;29.20;;;;;;5125240;28;19939;-60
2022/01/02 07:57:40;;;;;;;;;;;22.90;29.30;;;;;;5119622;28;20048;-59
2022/01/02 08:00:06;;;;;;;;;;;22.90;29.30;;;;;;5120024;28;20443;-57
2022/01/02 08:02:32;;;;;;;;;;;23.00;29.20;;;;;;5124801;28;19924;-62
2022/01/02 08:04:57;;;;;;;;;;;23.00;29.20;;;;;;5119412;28;19931;-57
2022/01/02 08:07:23;;;;;;;;;;;23.10;29.10;;;;;;5124613;28;19931;-62
2022/01/02 08:09:49;;;;;;;;;;;22.90;29.20;;;;;;5119813;28;19935;-59
2022/01/02 08:12:15;;;;;;;;;;;22.90;29.40;;;;;;5119710;28;19928;-58
2022/01/02 08:14:40;;;;;;;;;;;23.00;29.10;;;;;;5125148;28;19934;-61
2022/01/02 08:17:06;;;;;;;;;;;23.00;29.10;;;;;;5119602;28;19939;-61
2022/01/02 08:19:32;;;;;;;;;;;22.90;29.30;;;;;;5119304;28;19927;-59
2022/01/02 08:21:58;;;;;;;;;;;23.00;29.20;;;;;;5124378;28;19934;-60
2022/01/02 08:24:23;;;;;;;;;;;23.00;29.20;;;;;;5119223;28;20015;-62
2022/01/02 08:26:49;;;;;;;;;;;22.90;29.40;;;;;;5124273;28;19932;-58
2022/01/02 08:29:15;;;;;;;;;;;23.00;29.30;;;;;;5119494;28;19950;-57
2022/01/02 08:31:41;;;;;;;;;;;23.00;29.20;;;;;;5119827;28;20406;-61
2022/01/02 08:34:06;;;;;;;;;;;22.90;29.40;;;;;;5125049;27;19931;-61
2022/01/02 08:36:32;;;;;;;;;;;23.00;29.40;;;;;;5122739;28;19924;-59
2022/01/02 08:38:58;;;;;;;;;;;23.10;29.30;;;;;;5122511;28;19934;-60
2022/01/02 08:41:24;;;;;;;;;;;23.00;29.50;;;;;;5127884;28;19930;-57
2022/01/02 08:43:49;;;;;;;;;;;23.00;29.40;;;;;;5122352;28;19927;-60
2022/01/02 08:46:15;;;;;;;;;;;23.10;29.40;;;;;;5127900;28;19946;-60
2022/01/02 08:48:41;;;;;;;;;;;23.00;29.60;;;;;;5122838;28;19931;-61
2022/01/02 08:51:07;;;;;;;;;;;23.10;29.50;;;;;;5104522;28;19927;-59
2022/01/02 08:53:34;;;;;;;;;;;22.80;29.90;;;;;;5128079;28;19937;-59
2022/01/02 08:56:00;;;;;;;;;;;22.90;29.70;;;;;;5122446;28;19931;-59
2022/01/02 08:58:26;;;;;;;;;;;23.00;29.60;;;;;;5122171;28;20417;-62
2022/01/02 09:00:52;;;;;;;;;;;23.00;29.70;;;;;;5127434;28;20293;-56
2022/01/02 09:03:17;;;;;;;;;;;22.80;30.10;;;;;;5121808;28;20392;-59
2022/01/02 09:05:43;;;;;;;;;;;22.80;29.90;;;;;;5107934;28;19980;-57
2022/01/02 09:08:09;;;;;;;;;;;22.90;29.90;;;;;;5122964;28;20026;-58
2022/01/02 09:10:35;;;;;;;;;;;23.10;29.60;;;;;;5122247;28;19938;-61
2022/01/02 09:13:00;;;;;;;;;;;23.00;29.80;;;;;;5127700;28;19961;-60
2022/01/02 09:15:26;;;;;;;;;;;22.90;30.00;;;;;;5122107;28;19959;-59
2022/01/02 09:17:52;;;;;;;;;;;23.00;29.80;;;;;;5121831;28;19924;-64
2022/01/02 09:20:18;;;;;;;;;;;23.10;29.80;;;;;;5127163;28;20351;-59
2022/01/02 09:22:44;;;;;;;;;;;23.10;29.80;;;;;;5121690;28;19924;-57
2022/01/02 09:25:10;;;;;;;;;;;23.10;29.80;;;;;;5125329;28;19923;-60
2022/01/02 09:27:36;;;;;;;;;;;23.00;30.00;;;;;;5106651;28;19931;-55
2022/01/02 09:30:06;;;;;;;;;;;23.00;29.90;;;;;;5122026;28;19924;-61
2022/01/02 09:32:34;;;;;;;;;;;22.80;30.20;;;;;;5107442;28;20158;-59
2022/01/02 09:35:04;;;;;;;;;;;23.00;29.90;;;;;;5121820;28;19952;-60
2022/01/02 09:37:29;;;;;;;;;;;23.00;29.80;;;;;;5121842;28;19927;-57
2022/01/02 09:39:55;;;;;;;;;;;22.90;30.00;;;;;;5126795;28;19931;-57
2022/01/02 09:42:21;;;;;;;;;;;23.00;29.90;;;;;;5121500;28;19930;-60
2022/01/02 09:44:47;;;;;;;;;;;23.10;29.80;;;;;;5103867;27;20422;-60
2022/01/02 09:47:12;;;;;;;;;;;22.90;30.10;;;;;;5126847;28;20279;-62
2022/01/02 09:49:39;;;;;;;;;;;23.00;30.00;;;;;;5102846;28;20384;-60
2022/01/02 09:52:05;;;;;;;;;;;22.90;30.10;;;;;;5126998;28;19933;-58
2022/01/02 09:54:32;;;;;;;;;;;22.90;30.10;;;;;;5121428;28;19928;-61
2022/01/02 09:56:57;;;;;;;;;;;23.10;29.90;;;;;;5121365;28;19932;-59
2022/01/02 09:59:23;;;;;;;;;;;23.00;30.00;;;;;;5126394;28;20363;-61
2022/01/02 10:01:49;;;;;;;;;;;23.00;30.00;;;;;;5121849;28;19928;-59
2022/01/02 10:04:16;;;;;;;;;;;22.80;30.40;;;;;;5121460;28;20187;-60
2022/01/02 10:06:47;;;;;;;;;;;23.00;30.30;;;;;;5108384;28;19923;-60
2022/01/02 10:09:16;;;;;;;;;;;23.00;30.50;;;;;;5103037;28;19930;-62
2022/01/02 10:11:42;;;;;;;;;;;22.90;30.60;;;;;;5122307;28;19923;-62
2022/01/02 10:14:11;;;;;;;;;;;22.90;30.50;;;;;;5090807;28;19959;-61
2022/01/02 10:16:38;;;;;;;;;;;22.90;30.50;;;;;;5120860;28;20328;-62
2022/01/02 10:19:17;;;;;;;;;;;23.10;30.40;;;;;;5126343;28;19927;-62
2022/01/02 10:21:43;;;;;;;;;;;23.00;30.40;;;;;;5122549;28;19927;-60
2022/01/02 10:24:13;;;;;;;;;;;23.00;30.40;;;;;;5101777;28;20474;-62
2022/01/02 10:26:39;;;;;;;;;;;23.00;30.40;;;;;;5126549;28;20297;-63
2022/01/02 10:29:14;;;;;;;;;;;22.80;30.70;;;;;;5120764;28;19924;-60
2022/01/02 10:31:40;;;;;;;;;;;23.00;30.40;;;;;;5120819;28;20338;-58
2022/01/02 10:34:06;;;;;;;;;;;23.00;30.50;;;;;;5126075;28;19923;-59
2022/01/02 10:36:36;;;;;;;;;;;22.70;30.90;;;;;;5099871;28;19935;-58
2022/01/02 10:39:11;;;;;;;;;;;22.90;30.60;;;;;;5120848;28;20485;-61
2022/01/02 10:41:38;;;;;;;;;;;22.90;30.50;;;;;;5126407;28;19927;-62
2022/01/02 10:44:31;;;;;;;;;;;23.00;30.50;;;;;;5120818;28;19924;-60
2022/01/02 10:47:05;;;;;;;;;;;23.00;30.50;;;;;;5116293;28;20148;-60
2022/01/02 10:49:47;;;;;;;;;;;23.00;30.50;;;;;;5108050;28;20445;-60
2022/01/02 10:52:20;;;;;;;;;;;23.00;30.60;;;;;;5120712;28;20071;-58
2022/01/02 10:54:45;;;;;;;;;;;23.00;30.50;;;;;;5120947;28;19924;-61
2022/01/02 10:57:12;;;;;;;;;;;23.00;30.60;;;;;;5125150;27;19965;-60
2022/01/02 10:59:41;;;;;;;;;;;23.00;30.70;;;;;;5121029;28;19923;-59
2022/01/02 11:02:07;;;;;;;;;;;22.70;31.10;;;;;;5120476;28;19927;-56
2022/01/02 11:04:33;;;;;;;;;;;22.80;31.10;;;;;;5107311;28;19930;-60
2022/01/02 11:06:59;;;;;;;;;;;23.00;30.70;;;;;;5120373;28;20366;-58
2022/01/02 11:09:25;;;;;;;;;;;23.10;30.60;;;;;;5125477;28;19923;-59
2022/01/02 11:11:51;;;;;;;;;;;22.80;31.00;;;;;;5120154;28;19927;-58
2022/01/02 11:14:16;;;;;;;;;;;23.10;30.60;;;;;;5120373;28;19924;-60
2022/01/02 11:16:42;;;;;;;;;;;22.90;30.90;;;;;;5125821;28;19973;-61
2022/01/02 11:19:11;;;;;;;;;;;23.10;30.80;;;;;;5120455;28;19923;-61
2022/01/02 11:21:38;;;;;;;;;;;23.10;30.90;;;;;;5099704;28;19923;-61
2022/01/02 11:24:10;;;;;;;;;;;23.20;30.90;;;;;;5089942;28;20336;-58
2022/01/02 11:26:56;;;;;;;;;;;23.00;31.20;;;;;;5119848;28;20328;-60
2022/01/02 11:29:26;;;;;;;;;;;22.80;31.50;;;;;;5101672;28;20433;-61
2022/01/02 11:31:52;;;;;;;;;;;23.10;31.20;;;;;;5125142;28;20022;-57
2022/01/02 11:34:31;;;;;;;;;;;22.80;31.80;;;;;;5120091;28;19931;-62
2022/01/02 11:37:12;;;;;;;;;;;23.00;31.50;;;;;;5102147;28;19937;-57
2022/01/02 11:39:53;;;;;;;;;;;23.20;31.30;;;;;;5125444;28;19975;-60
2022/01/02 11:42:34;;;;;;;;;;;23.00;31.70;;;;;;5119703;28;19932;-58
2022/01/02 11:45:00;;;;;;;;;;;23.00;31.80;;;;;;5119850;28;20026;-60
2022/01/02 11:47:39;;;;;;;;;;;23.10;31.70;;;;;;5106735;28;20302;-61
2022/01/02 11:50:19;;;;;;;;;;;23.00;31.70;;;;;;5119604;28;20374;-56
2022/01/02 11:52:45;;;;;;;;;;;23.00;31.90;;;;;;5101571;28;19925;-58
2022/01/02 11:55:16;;;;;;;;;;;23.10;31.70;;;;;;5107067;28;19946;-63
2022/01/02 11:57:42;;;;;;;;;;;23.00;31.90;;;;;;5119989;28;19924;-61
2022/01/02 12:00:08;;;;;;;;;;;23.10;31.70;;;;;;5120140;28;19947;-59
2022/01/02 12:02:34;;;;;;;;;;;23.00;32.00;;;;;;5125177;28;20306;-61
2022/01/02 12:10:16;;;;;;;;;;;22.80;32.50;;;;;;5122417;27;19927;-63
2022/01/02 12:12:54;;;;;;;;;;;23.00;32.00;;;;;;5123844;28;19923;-61
2022/01/02 12:15:19;;;;;;;;;;;23.00;32.20;;;;;;5128506;28;20364;-61
2022/01/02 12:18:04;;;;;;;;;;;23.10;32.10;;;;;;5123490;28;19954;-61
2022/01/02 12:20:37;;;;;;;;;;;22.80;32.50;;;;;;5104755;28;20279;-61
2022/01/02 12:23:03;;;;;;;;;;;23.10;32.20;;;;;;5107551;28;19924;-66
2022/01/02 12:25:29;;;;;;;;;;;22.90;32.20;;;;;;5123220;28;20338;-61
2022/01/02 12:27:58;;;;;;;;;;;22.80;32.30;;;;;;5122518;28;19981;-59
2022/01/02 12:30:24;;;;;;;;;;;22.90;31.90;;;;;;5129044;28;19927;-62
2022/01/02 12:32:50;;;;;;;;;;;22.90;31.80;;;;;;5103556;28;19927;-61
2022/01/02 12:35:16;;;;;;;;;;;23.00;31.40;;;;;;5123183;28;20249;-60
2022/01/02 12:37:42;;;;;;;;;;;22.80;31.50;;;;;;5128052;28;20302;-57
2022/01/02 12:40:15;;;;;;;;;;;23.10;30.70;;;;;;5104383;28;19946;-62
2022/01/02 12:42:42;;;;;;;;;;;22.80;30.30;;;;;;5121802;28;21279;-60
2022/01/02 12:45:08;;;;;;;;;;;23.10;29.80;;;;;;5127834;28;19924;-61
2022/01/02 12:47:33;;;;;;;;;;;22.80;29.80;;;;;;5122820;28;20430;-58
2022/01/02 12:49:59;;;;;;;;;;;23.00;29.60;;;;;;5128353;28;19923;-55
2022/01/02 12:52:25;;;;;;;;;;;23.10;29.10;;;;;;5122970;28;19931;-64
2022/01/02 12:54:51;;;;;;;;;;;23.10;29.00;;;;;;5122711;28;20559;-60
2022/01/02 12:57:17;;;;;;;;;;;22.90;29.00;;;;;;5128100;28;19924;-64
2022/01/02 12:59:45;;;;;;;;;;;23.30;28.90;;;;;;5122495;28;20328;-59
2022/01/02 13:02:20;;;;;;;;;;;22.80;29.60;;;;;;5122071;28;20230;-62
2022/01/02 13:04:47;;;;;;;;;;;23.20;28.90;;;;;;5127589;28;19928;-60
2022/01/02 13:07:21;;;;;;;;;;;23.00;28.90;;;;;;5104324;28;20306;-62
2022/01/02 13:09:53;;;;;;;;;;;23.30;28.90;;;;;;5122779;28;20021;-59
2022/01/02 13:12:20;;;;;;;;;;;22.90;29.70;;;;;;5127830;28;19929;-62
2022/01/02 13:14:47;;;;;;;;;;;23.20;29.50;;;;;;5122302;28;20477;-56
2022/01/02 13:17:26;;;;;;;;;;;22.90;30.00;;;;;;5127872;28;19946;-63
2022/01/02 13:20:07;;;;;;;;;;;23.10;29.90;;;;;;5106766;27;19923;-60
2022/01/02 13:22:34;;;;;;;;;;;22.90;30.40;;;;;;5121835;28;20130;-61
2022/01/02 13:25:10;;;;;;;;;;;23.20;29.70;;;;;;5109192;28;19934;-61
2022/01/02 13:27:49;;;;;;;;;;;22.80;30.20;;;;;;5125561;28;20291;-64
2022/01/02 13:30:15;;;;;;;;;;;23.10;29.90;;;;;;5122138;28;20386;-59
2022/01/02 13:32:41;;;;;;;;;;;22.90;30.10;;;;;;5127406;28;19923;-63
2022/01/02 13:35:08;;;;;;;;;;;23.20;29.70;;;;;;5122130;28;19967;-59
2022/01/02 13:37:35;;;;;;;;;;;22.90;30.30;;;;;;5122013;28;19930;-65
2022/01/02 13:40:01;;;;;;;;;;;23.10;29.90;;;;;;5127133;28;20367;-58
2022/01/02 13:42:43;;;;;;;;;;;22.90;29.90;;;;;;5121326;28;19934;-64
2022/01/02 13:45:09;;;;;;;;;;;23.20;29.50;;;;;;5122060;28;20312;-55
2022/01/02 13:47:35;;;;;;;;;;;22.80;30.10;;;;;;5127145;28;19927;-66
2022/01/02 13:50:02;;;;;;;;;;;23.10;29.70;;;;;;5121786;28;19977;-58
2022/01/02 13:52:28;;;;;;;;;;;23.10;29.30;;;;;;5121625;28;19933;-62
2022/01/02 13:55:09;;;;;;;;;;;23.30;29.20;;;;;;5127147;28;20022;-58
2022/01/02 13:57:35;;;;;;;;;;;22.90;29.70;;;;;;5121818;28;19946;-63
2022/01/02 14:00:21;;;;;;;;;;;23.10;29.40;;;;;;5123473;28;19938;-60
2022/01/02 14:02:51;;;;;;;;;;;22.80;29.80;;;;;;5126194;28;19936;-62
2022/01/02 14:05:36;;;;;;;;;;;22.90;29.90;;;;;;5121463;28;20395;-60
2022/01/02 14:08:12;;;;;;;;;;;23.10;29.80;;;;;;5121828;28;19957;-56
2022/01/02 14:10:38;;;;;;;;;;;23.00;29.80;;;;;;5104583;28;19932;-65
2022/01/02 14:13:03;;;;;;;;;;;23.10;29.70;;;;;;5103200;28;20013;-58
2022/01/02 14:15:29;;;;;;;;;;;22.90;29.60;;;;;;5123950;28;19923;-58
2022/01/02 14:17:55;;;;;;;;;;;23.00;29.50;;;;;;5124203;28;19924;-60
2022/01/02 14:20:23;;;;;;;;;;;22.80;30.00;;;;;;5102549;28;20018;-62
2022/01/02 14:22:49;;;;;;;;;;;23.00;30.00;;;;;;5126858;28;19976;-60
2022/01/02 14:25:15;;;;;;;;;;;23.00;30.00;;;;;;5101617;28;19980;-60
2022/01/02 14:27:48;;;;;;;;;;;23.00;30.00;;;;;;5121351;28;20339;-61
2022/01/02 14:30:14;;;;;;;;;;;23.20;29.90;;;;;;5126630;28;19924;-57